^ Back to Top

Niederschlagsradar DWD

© Deutscher Wetterdienst, Offenbach (DWD)

Aviation WX

[source: ADDS]
METAR
EDDN 250220Z 12001KT 8000 MIFG SCT004 BKN120 16/16 Q1019 =
TAF
TAF EDDN 242300Z 2500/2524 VRB03KT CAVOK BECMG 2500/2502 BKN006 TEMPO 2500/2505 4000 BR BKN004 BECMG 2506/2508 BKN012 BECMG 2508/2510 30005KT SCT015 PROB30 TEMPO 2512/2519 33015G25KT TSRA BKN020CB =
SR / SS: 03:39 / 19:04 UTC (ETHR 2016-07-25)